Terminal Aerodrome Forecast
Issued by NWS La Crosse, WI

Current Version | Previous Version | Text Only | Print | Product List | Glossary On
Versions: 1 2 3 4 5 6 7 8 9 10 11 12 13 14 15 16 17 18 19 20 21 22 23 24
000
FTUS43 KARX 242005 AAA
TAFLSE
TAF AMD
KLSE 242005Z 2420/2518 18009KT P6SM BKN020
      TEMPO 2420/2423 5SM BR
     FM250200 20004KT P6SM SCT020
     FM250600 25006KT P6SM SKC
     FM251600 30008KT P6SM SKC=

USA.gov is the U.S. government's official web portal to all federal, state and local government web resources and services.